RYR12QX LEIB-EGSS
Flight info
| Callsign | RYR12QX |
|---|---|
| Flight time | 2h 13m |
| Altitude | 40000 |
| Route | EPAMA4F EPAMA N856 UMURE DCT XIKEN DCT KARES DCT ARBEK DCT REBUL DCT USKAR DCT MOPAS DCT GIROM DCT GONUP DCT TUPAR UN861 DIKRO UM185 DESNA M185 TELTU TELTU1L |
| Aircraft | B38M/M-SDE1FGHILORVWXY/HB1 |
Departure
| Time | 2026-04-30 19:30 |
|---|---|
| Airport | Ibiza Airport (LEIB) |
Arrival
| Time | 2026-04-30 21:43 |
|---|---|
| Airport | London Stansted Airport (EGSS) |
| Time | Latitude | Longitude | Altitude | Speed | Heading |
|---|---|---|---|---|---|
| 2026-04-30 19:04 | 38.87591 | 1.36992 | 12 ft | 0 kts | 333° |
| 2026-04-30 19:20 | 38.87579 | 1.37001 | 11 ft | 4 kts | 328° |
| 2026-04-30 19:20 | 38.87546 | 1.37050 | 13 ft | 4 kts | 273° |
| 2026-04-30 19:21 | 38.87549 | 1.37071 | 11 ft | 1 kts | 242° |
| 2026-04-30 19:21 | 38.87551 | 1.37074 | 12 ft | 0 kts | 242° |
| 2026-04-30 19:24 | 38.87527 | 1.37017 | 11 ft | 11 kts | 242° |
| 2026-04-30 19:25 | 38.87287 | 1.36848 | 11 ft | 16 kts | 208° |
| 2026-04-30 19:26 | 38.87163 | 1.36563 | 11 ft | 21 kts | 242° |
| 2026-04-30 19:26 | 38.87036 | 1.36259 | 12 ft | 20 kts | 242° |
| 2026-04-30 19:26 | 38.86973 | 1.36108 | 10 ft | 16 kts | 242° |
| 2026-04-30 19:27 | 38.86848 | 1.35830 | 12 ft | 16 kts | 214° |
| 2026-04-30 19:27 | 38.86724 | 1.35954 | 10 ft | 15 kts | 70° |
| 2026-04-30 19:28 | 38.86735 | 1.35984 | 8 ft | 3 kts | 62° |
| 2026-04-30 19:28 | 38.86739 | 1.35994 | 8 ft | 0 kts | 62° |
| 2026-04-30 19:29 | 38.86744 | 1.36004 | 9 ft | 4 kts | 62° |
| 2026-04-30 19:29 | 38.86837 | 1.36228 | 9 ft | 65 kts | 62° |
| 2026-04-30 19:30 | 38.88215 | 1.39635 | 1104 ft | 172 kts | 66° |
| 2026-04-30 19:30 | 38.89009 | 1.42768 | 2434 ft | 206 kts | 76° |
| 2026-04-30 19:31 | 38.89596 | 1.46557 | 4244 ft | 217 kts | 79° |
| 2026-04-30 19:31 | 38.89892 | 1.48494 | 5163 ft | 226 kts | 78° |
| 2026-04-30 19:31 | 38.90560 | 1.52503 | 7050 ft | 235 kts | 76° |
| 2026-04-30 19:32 | 38.91234 | 1.54465 | 7704 ft | 251 kts | 49° |
| 2026-04-30 19:32 | 38.92530 | 1.56073 | 8309 ft | 269 kts | 41° |
| 2026-04-30 19:32 | 38.93954 | 1.57748 | 8935 ft | 286 kts | 41° |
| 2026-04-30 19:32 | 38.95439 | 1.59482 | 9698 ft | 296 kts | 41° |
| 2026-04-30 19:33 | 38.96974 | 1.61263 | 10604 ft | 301 kts | 41° |
| 2026-04-30 19:33 | 38.98553 | 1.63088 | 11445 ft | 308 kts | 40° |
| 2026-04-30 19:33 | 39.00274 | 1.64736 | 12264 ft | 311 kts | 22° |
| 2026-04-30 19:33 | 39.02347 | 1.65435 | 13127 ft | 310 kts | 3° |
| 2026-04-30 19:34 | 39.04508 | 1.65755 | 13956 ft | 315 kts | 4° |
| 2026-04-30 19:34 | 39.06697 | 1.66083 | 14811 ft | 318 kts | 3° |
| 2026-04-30 19:34 | 39.11137 | 1.65565 | 15950 ft | 334 kts | 333° |
| 2026-04-30 19:35 | 39.13320 | 1.64385 | 16465 ft | 346 kts | 334° |
| 2026-04-30 19:35 | 39.15542 | 1.63178 | 17274 ft | 347 kts | 333° |
| 2026-04-30 19:35 | 39.17781 | 1.61945 | 17973 ft | 352 kts | 333° |
| 2026-04-30 19:35 | 39.20040 | 1.60690 | 18693 ft | 355 kts | 333° |
| 2026-04-30 19:36 | 39.22319 | 1.59418 | 19366 ft | 359 kts | 333° |
| 2026-04-30 19:36 | 39.24625 | 1.58129 | 20016 ft | 363 kts | 333° |
| 2026-04-30 19:36 | 39.29305 | 1.55508 | 21263 ft | 370 kts | 333° |
| 2026-04-30 19:37 | 39.31675 | 1.54179 | 21836 ft | 374 kts | 333° |
| 2026-04-30 19:37 | 39.34073 | 1.52833 | 22434 ft | 377 kts | 333° |
| 2026-04-30 19:37 | 39.36488 | 1.51476 | 23009 ft | 380 kts | 333° |
| 2026-04-30 19:37 | 39.38924 | 1.50107 | 23552 ft | 384 kts | 333° |
| 2026-04-30 19:38 | 39.41382 | 1.48724 | 24095 ft | 387 kts | 333° |
| 2026-04-30 19:38 | 39.43857 | 1.47330 | 24603 ft | 390 kts | 332° |
| 2026-04-30 19:38 | 39.46358 | 1.45922 | 25099 ft | 393 kts | 333° |
| 2026-04-30 19:38 | 39.48872 | 1.44504 | 25591 ft | 396 kts | 332° |
| 2026-04-30 19:39 | 39.51408 | 1.43073 | 26070 ft | 399 kts | 332° |
| 2026-04-30 19:39 | 39.53957 | 1.41633 | 26526 ft | 402 kts | 332° |
| 2026-04-30 19:39 | 39.56530 | 1.40180 | 26970 ft | 404 kts | 332° |
| 2026-04-30 19:39 | 39.59119 | 1.38731 | 27393 ft | 408 kts | 335° |
| 2026-04-30 19:40 | 39.61909 | 1.37879 | 27830 ft | 417 kts | 350° |
| 2026-04-30 19:40 | 39.64804 | 1.37497 | 28234 ft | 420 kts | 349° |
| 2026-04-30 19:40 | 39.67689 | 1.37081 | 28586 ft | 424 kts | 349° |
| 2026-04-30 19:40 | 39.70628 | 1.36677 | 29008 ft | 426 kts | 350° |
| 2026-04-30 19:41 | 39.73586 | 1.36281 | 29369 ft | 429 kts | 349° |
| 2026-04-30 19:41 | 39.76569 | 1.35884 | 29744 ft | 431 kts | 349° |
| 2026-04-30 19:41 | 39.79562 | 1.35486 | 30095 ft | 434 kts | 349° |
| 2026-04-30 19:41 | 39.82579 | 1.35084 | 30453 ft | 437 kts | 349° |
| 2026-04-30 19:42 | 39.85605 | 1.34681 | 30819 ft | 439 kts | 349° |
| 2026-04-30 19:42 | 39.87662 | 1.34407 | 31028 ft | 441 kts | 349° |
| 2026-04-30 19:42 | 39.90723 | 1.33999 | 31361 ft | 443 kts | 350° |
| 2026-04-30 19:42 | 39.93793 | 1.33589 | 31701 ft | 445 kts | 350° |
| 2026-04-30 19:43 | 39.96884 | 1.33177 | 32015 ft | 448 kts | 350° |
| 2026-04-30 19:43 | 39.99992 | 1.32761 | 32320 ft | 450 kts | 349° |
| 2026-04-30 19:43 | 40.03113 | 1.32343 | 32623 ft | 452 kts | 349° |
| 2026-04-30 19:44 | 40.09334 | 1.31510 | 33266 ft | 455 kts | 349° |
| 2026-04-30 19:44 | 40.12492 | 1.31086 | 33546 ft | 457 kts | 349° |
| 2026-04-30 19:44 | 40.15662 | 1.30660 | 33846 ft | 459 kts | 349° |
| 2026-04-30 19:44 | 40.18840 | 1.30233 | 34196 ft | 459 kts | 349° |
| 2026-04-30 19:45 | 40.22013 | 1.29806 | 34584 ft | 458 kts | 349° |
| 2026-04-30 19:45 | 40.25183 | 1.29379 | 34960 ft | 458 kts | 349° |
| 2026-04-30 19:45 | 40.28351 | 1.28952 | 35320 ft | 457 kts | 349° |
| 2026-04-30 19:45 | 40.31510 | 1.28526 | 35667 ft | 456 kts | 349° |
| 2026-04-30 19:46 | 40.34667 | 1.28099 | 36005 ft | 456 kts | 349° |
| 2026-04-30 19:46 | 40.37815 | 1.27673 | 36337 ft | 455 kts | 349° |
| 2026-04-30 19:46 | 40.40963 | 1.27247 | 36628 ft | 455 kts | 349° |
| 2026-04-30 19:46 | 40.44105 | 1.26821 | 36951 ft | 453 kts | 349° |
| 2026-04-30 19:47 | 40.47229 | 1.26398 | 37335 ft | 450 kts | 349° |
| 2026-04-30 19:47 | 40.49292 | 1.26118 | 37569 ft | 448 kts | 349° |
| 2026-04-30 19:47 | 40.53425 | 1.25556 | 37975 ft | 446 kts | 349° |
| 2026-04-30 19:47 | 40.56512 | 1.25136 | 38224 ft | 446 kts | 349° |
| 2026-04-30 19:48 | 40.59595 | 1.24716 | 38454 ft | 445 kts | 349° |
| 2026-04-30 19:48 | 40.62679 | 1.24296 | 38668 ft | 445 kts | 349° |
| 2026-04-30 19:48 | 40.65753 | 1.23877 | 38872 ft | 445 kts | 349° |
| 2026-04-30 19:48 | 40.68835 | 1.23456 | 39069 ft | 444 kts | 349° |
| 2026-04-30 19:49 | 40.71906 | 1.23036 | 39263 ft | 444 kts | 349° |
| 2026-04-30 19:49 | 40.78053 | 1.22196 | 39605 ft | 444 kts | 349° |
| 2026-04-30 19:49 | 40.81129 | 1.21775 | 39757 ft | 444 kts | 349° |
| 2026-04-30 19:50 | 40.84201 | 1.21353 | 39898 ft | 444 kts | 349° |
| 2026-04-30 19:50 | 40.87276 | 1.20931 | 40061 ft | 444 kts | 349° |
| 2026-04-30 19:50 | 40.93430 | 1.20085 | 40129 ft | 445 kts | 349° |
| 2026-04-30 19:51 | 40.99568 | 1.19239 | 40132 ft | 443 kts | 349° |
| 2026-04-30 19:51 | 41.05704 | 1.18393 | 40131 ft | 443 kts | 349° |
| 2026-04-30 19:52 | 41.11825 | 1.17547 | 40126 ft | 442 kts | 349° |
| 2026-04-30 19:52 | 41.17918 | 1.16803 | 40128 ft | 443 kts | 350° |
| 2026-04-30 19:53 | 41.24069 | 1.16165 | 40125 ft | 443 kts | 351° |
| 2026-04-30 19:53 | 41.30210 | 1.15522 | 40130 ft | 443 kts | 351° |
| 2026-04-30 19:54 | 41.36347 | 1.14877 | 40122 ft | 442 kts | 351° |
| 2026-04-30 19:54 | 41.42476 | 1.14233 | 40132 ft | 442 kts | 350° |
| 2026-04-30 19:55 | 41.48606 | 1.13587 | 40121 ft | 442 kts | 350° |
| 2026-04-30 19:55 | 41.54739 | 1.12940 | 40118 ft | 442 kts | 350° |
| 2026-04-30 19:56 | 41.60860 | 1.12293 | 40117 ft | 441 kts | 350° |
| 2026-04-30 19:56 | 41.66984 | 1.11645 | 40111 ft | 442 kts | 350° |
| 2026-04-30 19:57 | 41.73108 | 1.10995 | 40107 ft | 441 kts | 350° |
| 2026-04-30 19:57 | 41.79229 | 1.10344 | 40110 ft | 441 kts | 350° |
| 2026-04-30 19:58 | 41.85350 | 1.09692 | 40110 ft | 441 kts | 350° |
| 2026-04-30 19:58 | 41.91468 | 1.09039 | 40109 ft | 441 kts | 350° |
| 2026-04-30 19:59 | 41.97592 | 1.08384 | 40106 ft | 441 kts | 350° |
| 2026-04-30 20:00 | 42.06763 | 1.07400 | 40112 ft | 440 kts | 350° |
| 2026-04-30 20:00 | 42.12821 | 1.06749 | 40101 ft | 439 kts | 350° |
| 2026-04-30 20:01 | 42.21967 | 1.05766 | 40105 ft | 439 kts | 350° |
| 2026-04-30 20:01 | 42.28060 | 1.05109 | 40120 ft | 440 kts | 350° |
| 2026-04-30 20:02 | 42.37213 | 1.04121 | 40110 ft | 440 kts | 350° |
| 2026-04-30 20:03 | 42.46370 | 1.03127 | 40100 ft | 440 kts | 350° |
| 2026-04-30 20:03 | 42.52464 | 1.02463 | 40120 ft | 439 kts | 350° |
| 2026-04-30 20:04 | 42.58563 | 1.01797 | 40100 ft | 439 kts | 350° |
| 2026-04-30 20:05 | 42.67715 | 1.00796 | 40112 ft | 439 kts | 350° |
| 2026-04-30 20:05 | 42.76863 | 0.99777 | 40107 ft | 439 kts | 348° |
| 2026-04-30 20:06 | 42.82736 | 0.97905 | 40106 ft | 435 kts | 341° |
| 2026-04-30 20:06 | 42.88604 | 0.95900 | 40147 ft | 435 kts | 341° |
| 2026-04-30 20:07 | 42.94476 | 0.93874 | 40130 ft | 435 kts | 341° |
| 2026-04-30 20:08 | 43.03276 | 0.90830 | 40147 ft | 435 kts | 341° |
| 2026-04-30 20:08 | 43.09151 | 0.88793 | 40136 ft | 435 kts | 341° |
| 2026-04-30 20:09 | 43.15023 | 0.86753 | 40142 ft | 435 kts | 341° |
| 2026-04-30 20:09 | 43.23835 | 0.83683 | 40146 ft | 436 kts | 341° |
| 2026-04-30 20:10 | 43.32646 | 0.80605 | 40145 ft | 435 kts | 341° |
| 2026-04-30 20:11 | 43.41416 | 0.77531 | 40154 ft | 436 kts | 341° |
| 2026-04-30 20:11 | 43.47239 | 0.75275 | 40157 ft | 432 kts | 336° |
| 2026-04-30 20:12 | 43.55817 | 0.71298 | 40159 ft | 434 kts | 338° |
| 2026-04-30 20:13 | 43.61559 | 0.68681 | 40156 ft | 435 kts | 338° |
| 2026-04-30 20:13 | 43.67303 | 0.66062 | 40155 ft | 435 kts | 338° |
| 2026-04-30 20:14 | 43.73050 | 0.63436 | 40155 ft | 435 kts | 338° |
| 2026-04-30 20:14 | 43.78802 | 0.60802 | 40156 ft | 435 kts | 338° |
| 2026-04-30 20:15 | 43.84549 | 0.58165 | 40164 ft | 435 kts | 338° |
| 2026-04-30 20:15 | 43.90294 | 0.55524 | 40155 ft | 435 kts | 337° |
| 2026-04-30 20:16 | 43.96045 | 0.52875 | 40157 ft | 436 kts | 338° |
| 2026-04-30 20:16 | 44.01794 | 0.50221 | 40154 ft | 436 kts | 338° |
| 2026-04-30 20:17 | 44.07556 | 0.47556 | 40159 ft | 437 kts | 338° |
| 2026-04-30 20:17 | 44.13327 | 0.44881 | 40157 ft | 437 kts | 338° |
| 2026-04-30 20:18 | 44.19096 | 0.42201 | 40157 ft | 437 kts | 338° |
| 2026-04-30 20:18 | 44.24863 | 0.39517 | 40154 ft | 437 kts | 338° |
| 2026-04-30 20:19 | 44.30591 | 0.36845 | 40156 ft | 437 kts | 338° |
| 2026-04-30 20:19 | 44.36354 | 0.34152 | 40156 ft | 437 kts | 338° |
| 2026-04-30 20:20 | 44.42122 | 0.31451 | 40154 ft | 437 kts | 338° |
| 2026-04-30 20:20 | 44.47889 | 0.28744 | 40155 ft | 437 kts | 338° |
| 2026-04-30 20:21 | 44.53661 | 0.26029 | 40154 ft | 438 kts | 338° |
| 2026-04-30 20:21 | 44.59436 | 0.23308 | 40155 ft | 438 kts | 338° |
| 2026-04-30 20:22 | 44.65211 | 0.20581 | 40156 ft | 438 kts | 338° |
| 2026-04-30 20:22 | 44.70991 | 0.17845 | 40157 ft | 439 kts | 338° |
| 2026-04-30 20:23 | 44.76775 | 0.15102 | 40156 ft | 439 kts | 338° |
| 2026-04-30 20:23 | 44.82569 | 0.12348 | 40154 ft | 440 kts | 338° |
| 2026-04-30 20:24 | 44.88363 | 0.09588 | 40157 ft | 440 kts | 338° |
| 2026-04-30 20:24 | 44.94173 | 0.06816 | 40157 ft | 441 kts | 339° |
| 2026-04-30 20:25 | 45.02890 | 0.02644 | 40157 ft | 441 kts | 339° |
| 2026-04-30 20:26 | 45.11628 | -0.01553 | 40168 ft | 442 kts | 339° |
| 2026-04-30 20:26 | 45.20339 | -0.05748 | 40166 ft | 440 kts | 339° |
| 2026-04-30 20:27 | 45.31902 | -0.11338 | 40164 ft | 440 kts | 339° |
| 2026-04-30 20:28 | 45.43503 | -0.16972 | 40165 ft | 441 kts | 339° |
| 2026-04-30 20:30 | 45.58016 | -0.24054 | 40162 ft | 441 kts | 339° |
| 2026-04-30 20:31 | 45.74455 | -0.32123 | 40155 ft | 441 kts | 339° |
| 2026-04-30 20:32 | 45.88977 | -0.39293 | 40155 ft | 442 kts | 339° |
| 2026-04-30 20:33 | 45.97688 | -0.43612 | 40157 ft | 442 kts | 339° |
| 2026-04-30 20:34 | 46.06414 | -0.47954 | 40149 ft | 444 kts | 340° |
| 2026-04-30 20:35 | 46.15219 | -0.52350 | 40155 ft | 447 kts | 340° |
| 2026-04-30 20:35 | 46.24025 | -0.56759 | 40156 ft | 447 kts | 340° |
| 2026-04-30 20:36 | 46.29896 | -0.59708 | 40156 ft | 447 kts | 340° |
| 2026-04-30 20:37 | 46.38705 | -0.64143 | 40157 ft | 447 kts | 340° |
| 2026-04-30 20:37 | 46.44683 | -0.66524 | 40151 ft | 446 kts | 354° |
| 2026-04-30 20:38 | 46.50872 | -0.67590 | 40140 ft | 448 kts | 352° |
| 2026-04-30 20:38 | 46.57074 | -0.68649 | 40156 ft | 449 kts | 352° |
| 2026-04-30 20:39 | 46.66387 | -0.70218 | 40155 ft | 449 kts | 353° |
| 2026-04-30 20:40 | 46.75652 | -0.71783 | 40156 ft | 449 kts | 353° |
| 2026-04-30 20:40 | 46.81856 | -0.72834 | 40153 ft | 449 kts | 353° |
| 2026-04-30 20:41 | 46.91172 | -0.74417 | 40146 ft | 449 kts | 353° |
| 2026-04-30 20:41 | 46.97387 | -0.75476 | 40147 ft | 450 kts | 353° |
| 2026-04-30 20:42 | 47.03605 | -0.76538 | 40147 ft | 450 kts | 353° |
| 2026-04-30 20:43 | 47.12927 | -0.78135 | 40146 ft | 449 kts | 353° |
| 2026-04-30 20:43 | 47.19142 | -0.79202 | 40145 ft | 450 kts | 353° |
| 2026-04-30 20:44 | 47.28460 | -0.80808 | 40145 ft | 450 kts | 353° |
| 2026-04-30 20:45 | 47.40903 | -0.82961 | 40156 ft | 450 kts | 353° |
| 2026-04-30 20:45 | 47.47127 | -0.84041 | 40156 ft | 450 kts | 353° |
| 2026-04-30 20:46 | 47.59608 | -0.85813 | 40161 ft | 451 kts | 355° |
| 2026-04-30 20:47 | 47.68981 | -0.86957 | 40156 ft | 450 kts | 355° |
| 2026-04-30 20:48 | 47.78306 | -0.88102 | 40156 ft | 450 kts | 355° |
| 2026-04-30 20:48 | 47.84553 | -0.88872 | 40155 ft | 451 kts | 355° |
| 2026-04-30 20:49 | 47.90810 | -0.89645 | 40156 ft | 451 kts | 355° |
| 2026-04-30 20:50 | 48.00199 | -0.90809 | 40156 ft | 451 kts | 355° |
| 2026-04-30 20:50 | 48.06461 | -0.91587 | 40158 ft | 452 kts | 355° |
| 2026-04-30 20:51 | 48.12736 | -0.92369 | 40156 ft | 452 kts | 355° |
| 2026-04-30 20:51 | 48.22146 | -0.93545 | 40156 ft | 452 kts | 355° |
| 2026-04-30 20:52 | 48.28413 | -0.94331 | 40147 ft | 452 kts | 355° |
| 2026-04-30 20:53 | 48.37819 | -0.95513 | 40147 ft | 452 kts | 355° |
| 2026-04-30 20:53 | 48.44092 | -0.96305 | 40147 ft | 452 kts | 355° |
| 2026-04-30 20:54 | 48.53497 | -0.97495 | 40138 ft | 452 kts | 355° |
| 2026-04-30 20:55 | 48.62909 | -0.98690 | 40139 ft | 453 kts | 355° |
| 2026-04-30 20:55 | 48.69192 | -0.99491 | 40137 ft | 453 kts | 355° |
| 2026-04-30 20:56 | 48.78571 | -1.00689 | 40136 ft | 453 kts | 355° |
| 2026-04-30 20:57 | 48.87990 | -1.01897 | 40138 ft | 453 kts | 355° |
| 2026-04-30 20:57 | 48.94268 | -1.02705 | 40138 ft | 453 kts | 355° |
| 2026-04-30 20:58 | 49.03688 | -1.03921 | 40127 ft | 453 kts | 355° |
| 2026-04-30 20:58 | 49.09964 | -1.04734 | 40126 ft | 453 kts | 355° |
| 2026-04-30 20:59 | 49.19382 | -1.05957 | 40131 ft | 453 kts | 355° |
| 2026-04-30 21:00 | 49.31939 | -1.07596 | 40127 ft | 453 kts | 355° |
| 2026-04-30 21:01 | 49.41351 | -1.08829 | 40127 ft | 453 kts | 355° |
| 2026-04-30 21:02 | 49.50761 | -1.10067 | 40131 ft | 453 kts | 355° |
| 2026-04-30 21:02 | 49.57014 | -1.10084 | 39853 ft | 445 kts | 13° |
| 2026-04-30 21:02 | 49.59907 | -1.08516 | 39251 ft | 441 kts | 30° |
| 2026-04-30 21:03 | 49.62472 | -1.05962 | 38628 ft | 439 kts | 37° |
| 2026-04-30 21:03 | 49.64948 | -1.03232 | 38072 ft | 436 kts | 38° |
| 2026-04-30 21:03 | 49.67377 | -1.00454 | 37561 ft | 433 kts | 38° |
| 2026-04-30 21:03 | 49.69775 | -0.97662 | 37058 ft | 430 kts | 39° |
| 2026-04-30 21:04 | 49.72145 | -0.94867 | 36538 ft | 427 kts | 39° |
| 2026-04-30 21:04 | 49.74573 | -0.92251 | 36002 ft | 427 kts | 28° |
| 2026-04-30 21:04 | 49.80322 | -0.90173 | 34880 ft | 426 kts | 7° |
| 2026-04-30 21:05 | 49.83254 | -0.89677 | 34451 ft | 422 kts | 7° |
| 2026-04-30 21:05 | 49.86169 | -0.89218 | 33991 ft | 419 kts | 6° |
| 2026-04-30 21:05 | 49.89064 | -0.88787 | 33497 ft | 417 kts | 6° |
| 2026-04-30 21:05 | 49.91950 | -0.88371 | 32999 ft | 416 kts | 6° |
| 2026-04-30 21:06 | 49.94823 | -0.87960 | 32525 ft | 413 kts | 6° |
| 2026-04-30 21:06 | 49.97678 | -0.87555 | 32045 ft | 411 kts | 6° |
| 2026-04-30 21:06 | 50.00521 | -0.87151 | 31556 ft | 409 kts | 6° |
| 2026-04-30 21:06 | 50.03354 | -0.86748 | 31057 ft | 408 kts | 7° |
| 2026-04-30 21:07 | 50.06178 | -0.86346 | 30610 ft | 406 kts | 7° |
| 2026-04-30 21:07 | 50.08977 | -0.85947 | 30190 ft | 403 kts | 7° |
| 2026-04-30 21:07 | 50.11757 | -0.85550 | 29757 ft | 401 kts | 6° |
| 2026-04-30 21:07 | 50.14530 | -0.85153 | 29300 ft | 399 kts | 7° |
| 2026-04-30 21:08 | 50.17285 | -0.84759 | 28863 ft | 397 kts | 7° |
| 2026-04-30 21:08 | 50.20024 | -0.84367 | 28435 ft | 395 kts | 7° |
| 2026-04-30 21:08 | 50.22755 | -0.83975 | 28008 ft | 393 kts | 7° |
| 2026-04-30 21:08 | 50.25473 | -0.83585 | 27582 ft | 391 kts | 7° |
| 2026-04-30 21:09 | 50.28178 | -0.83196 | 27161 ft | 390 kts | 7° |
| 2026-04-30 21:09 | 50.30869 | -0.82809 | 26739 ft | 388 kts | 7° |
| 2026-04-30 21:09 | 50.33555 | -0.82422 | 26288 ft | 388 kts | 7° |
| 2026-04-30 21:09 | 50.36243 | -0.82034 | 25855 ft | 387 kts | 7° |
| 2026-04-30 21:10 | 50.38910 | -0.81649 | 25481 ft | 384 kts | 8° |
| 2026-04-30 21:10 | 50.41569 | -0.81264 | 25080 ft | 382 kts | 8° |
| 2026-04-30 21:10 | 50.44211 | -0.80881 | 24678 ft | 381 kts | 8° |
| 2026-04-30 21:10 | 50.46842 | -0.80499 | 24273 ft | 379 kts | 8° |
| 2026-04-30 21:11 | 50.49465 | -0.80118 | 23872 ft | 378 kts | 8° |
| 2026-04-30 21:11 | 50.52078 | -0.79739 | 23471 ft | 377 kts | 8° |
| 2026-04-30 21:11 | 50.54681 | -0.79360 | 23072 ft | 375 kts | 8° |
| 2026-04-30 21:11 | 50.57276 | -0.78983 | 22679 ft | 374 kts | 8° |
| 2026-04-30 21:12 | 50.59858 | -0.78606 | 22286 ft | 372 kts | 8° |
| 2026-04-30 21:12 | 50.62400 | -0.78235 | 21873 ft | 372 kts | 8° |
| 2026-04-30 21:12 | 50.64974 | -0.77859 | 21451 ft | 371 kts | 8° |
| 2026-04-30 21:12 | 50.67535 | -0.77484 | 21069 ft | 369 kts | 8° |
| 2026-04-30 21:13 | 50.70091 | -0.77110 | 20690 ft | 367 kts | 8° |
| 2026-04-30 21:13 | 50.72622 | -0.76739 | 20306 ft | 366 kts | 8° |
| 2026-04-30 21:13 | 50.75150 | -0.76368 | 19920 ft | 364 kts | 8° |
| 2026-04-30 21:13 | 50.77662 | -0.75999 | 19541 ft | 361 kts | 8° |
| 2026-04-30 21:14 | 50.80157 | -0.75624 | 19196 ft | 358 kts | 10° |
| 2026-04-30 21:14 | 50.82501 | -0.74606 | 19012 ft | 343 kts | 27° |
| 2026-04-30 21:14 | 50.84674 | -0.73179 | 18864 ft | 334 kts | 26° |
| 2026-04-30 21:14 | 50.86810 | -0.71818 | 18693 ft | 329 kts | 26° |
| 2026-04-30 21:15 | 50.88935 | -0.70455 | 18530 ft | 330 kts | 26° |
| 2026-04-30 21:15 | 50.91059 | -0.69088 | 18357 ft | 329 kts | 26° |
| 2026-04-30 21:15 | 50.93179 | -0.67722 | 18186 ft | 328 kts | 26° |
| 2026-04-30 21:15 | 50.95289 | -0.66360 | 18004 ft | 327 kts | 26° |
| 2026-04-30 21:16 | 50.97393 | -0.64999 | 17842 ft | 326 kts | 26° |
| 2026-04-30 21:16 | 50.99491 | -0.63641 | 17670 ft | 326 kts | 26° |
| 2026-04-30 21:16 | 51.01587 | -0.62284 | 17496 ft | 325 kts | 26° |
| 2026-04-30 21:16 | 51.03675 | -0.60930 | 17324 ft | 324 kts | 26° |
| 2026-04-30 21:17 | 51.05761 | -0.59576 | 17164 ft | 323 kts | 26° |
| 2026-04-30 21:17 | 51.07827 | -0.58233 | 16992 ft | 323 kts | 26° |
| 2026-04-30 21:17 | 51.09903 | -0.56884 | 16826 ft | 322 kts | 26° |
| 2026-04-30 21:17 | 51.11972 | -0.55537 | 16655 ft | 321 kts | 26° |
| 2026-04-30 21:18 | 51.13337 | -0.54647 | 16542 ft | 321 kts | 26° |
| 2026-04-30 21:18 | 51.15400 | -0.53303 | 16380 ft | 320 kts | 26° |
| 2026-04-30 21:18 | 51.17458 | -0.51960 | 16212 ft | 319 kts | 26° |
| 2026-04-30 21:18 | 51.19507 | -0.50621 | 16047 ft | 318 kts | 26° |
| 2026-04-30 21:19 | 51.21555 | -0.49282 | 15876 ft | 318 kts | 26° |
| 2026-04-30 21:19 | 51.23595 | -0.47947 | 15713 ft | 317 kts | 26° |
| 2026-04-30 21:19 | 51.25633 | -0.46612 | 15548 ft | 316 kts | 26° |
| 2026-04-30 21:19 | 51.27661 | -0.45282 | 15380 ft | 315 kts | 26° |
| 2026-04-30 21:20 | 51.29691 | -0.43950 | 15216 ft | 315 kts | 26° |
| 2026-04-30 21:20 | 51.31713 | -0.42622 | 15055 ft | 314 kts | 26° |
| 2026-04-30 21:20 | 51.33730 | -0.41295 | 14888 ft | 313 kts | 26° |
| 2026-04-30 21:20 | 51.35746 | -0.39968 | 14726 ft | 313 kts | 26° |
| 2026-04-30 21:21 | 51.37757 | -0.38643 | 14566 ft | 312 kts | 26° |
| 2026-04-30 21:21 | 51.39761 | -0.37322 | 14396 ft | 311 kts | 26° |
| 2026-04-30 21:21 | 51.43681 | -0.34687 | 14064 ft | 309 kts | 29° |
| 2026-04-30 21:22 | 51.45617 | -0.33191 | 13887 ft | 308 kts | 29° |
| 2026-04-30 21:22 | 51.51372 | -0.28781 | 13415 ft | 306 kts | 29° |
| 2026-04-30 21:23 | 51.53293 | -0.27316 | 13254 ft | 305 kts | 29° |
| 2026-04-30 21:23 | 51.55210 | -0.25851 | 13082 ft | 305 kts | 29° |
| 2026-04-30 21:23 | 51.59030 | -0.22929 | 12751 ft | 304 kts | 29° |
| 2026-04-30 21:24 | 51.60725 | -0.21630 | 12629 ft | 302 kts | 29° |
| 2026-04-30 21:24 | 51.62620 | -0.20178 | 12497 ft | 302 kts | 29° |
| 2026-04-30 21:24 | 51.64519 | -0.18722 | 12318 ft | 302 kts | 29° |
| 2026-04-30 21:24 | 51.66411 | -0.17268 | 12148 ft | 300 kts | 29° |
| 2026-04-30 21:25 | 51.70169 | -0.14378 | 11835 ft | 299 kts | 29° |
| 2026-04-30 21:25 | 51.71939 | -0.13016 | 11683 ft | 299 kts | 29° |
| 2026-04-30 21:25 | 51.73840 | -0.11551 | 11529 ft | 298 kts | 29° |
| 2026-04-30 21:26 | 51.77602 | -0.08869 | 11185 ft | 297 kts | 26° |
| 2026-04-30 21:26 | 51.79216 | -0.07743 | 11073 ft | 296 kts | 27° |
| 2026-04-30 21:27 | 51.82992 | -0.05094 | 10759 ft | 294 kts | 26° |
| 2026-04-30 21:27 | 51.84867 | -0.03775 | 10603 ft | 293 kts | 27° |
| 2026-04-30 21:27 | 51.86737 | -0.02458 | 10444 ft | 293 kts | 26° |
| 2026-04-30 21:28 | 51.90465 | 0.00172 | 10142 ft | 291 kts | 26° |
| 2026-04-30 21:28 | 51.92317 | 0.01480 | 9994 ft | 289 kts | 27° |
| 2026-04-30 21:28 | 51.95913 | 0.04022 | 9686 ft | 275 kts | 27° |
| 2026-04-30 21:29 | 51.97642 | 0.05245 | 9541 ft | 267 kts | 27° |
| 2026-04-30 21:29 | 52.03128 | 0.06410 | 9103 ft | 269 kts | 5° |
| 2026-04-30 21:30 | 52.06859 | 0.06635 | 8824 ft | 268 kts | 5° |
| 2026-04-30 21:31 | 52.12177 | 0.05094 | 8363 ft | 268 kts | 314° |
| 2026-04-30 21:31 | 52.13377 | -0.00338 | 8177 ft | 259 kts | 258° |
| 2026-04-30 21:32 | 52.11635 | -0.05002 | 7978 ft | 237 kts | 207° |
| 2026-04-30 21:32 | 52.10132 | -0.05951 | 7845 ft | 230 kts | 186° |
| 2026-04-30 21:32 | 52.08545 | -0.05962 | 7721 ft | 228 kts | 174° |
| 2026-04-30 21:32 | 52.06952 | -0.05784 | 7611 ft | 230 kts | 174° |
| 2026-04-30 21:33 | 52.05361 | -0.05626 | 7468 ft | 229 kts | 175° |
| 2026-04-30 21:33 | 52.02198 | -0.05317 | 7180 ft | 227 kts | 171° |
| 2026-04-30 21:33 | 52.00674 | -0.04613 | 6770 ft | 231 kts | 153° |
| 2026-04-30 21:34 | 51.99328 | -0.03134 | 6346 ft | 236 kts | 144° |
| 2026-04-30 21:34 | 51.96625 | 0.00016 | 5578 ft | 242 kts | 145° |
| 2026-04-30 21:34 | 51.95245 | 0.01596 | 5218 ft | 244 kts | 144° |
| 2026-04-30 21:35 | 51.93824 | 0.03101 | 4843 ft | 245 kts | 155° |
| 2026-04-30 21:35 | 51.92128 | 0.03470 | 4389 ft | 255 kts | 185° |
| 2026-04-30 21:35 | 51.90424 | 0.02774 | 4023 ft | 253 kts | 190° |
| 2026-04-30 21:35 | 51.88747 | 0.02087 | 3654 ft | 244 kts | 189° |
| 2026-04-30 21:36 | 51.87119 | 0.01431 | 3273 ft | 238 kts | 189° |
| 2026-04-30 21:36 | 51.85547 | 0.00795 | 3012 ft | 227 kts | 188° |
| 2026-04-30 21:37 | 51.81416 | -0.00873 | 3040 ft | 188 kts | 188° |
| 2026-04-30 21:37 | 51.80214 | -0.01355 | 3031 ft | 170 kts | 188° |
| 2026-04-30 21:37 | 51.79108 | -0.01562 | 2928 ft | 152 kts | 164° |
| 2026-04-30 21:37 | 51.78205 | -0.00804 | 2925 ft | 147 kts | 138° |
| 2026-04-30 21:38 | 51.77478 | 0.00375 | 2996 ft | 149 kts | 135° |
| 2026-04-30 21:38 | 51.76765 | 0.01578 | 3038 ft | 146 kts | 133° |
| 2026-04-30 21:38 | 51.76376 | 0.03058 | 2922 ft | 150 kts | 95° |
| 2026-04-30 21:38 | 51.76720 | 0.04695 | 2928 ft | 161 kts | 68° |
| 2026-04-30 21:39 | 51.77334 | 0.06253 | 2982 ft | 167 kts | 63° |
| 2026-04-30 21:39 | 51.78076 | 0.07731 | 2846 ft | 172 kts | 56° |
| 2026-04-30 21:39 | 51.78907 | 0.09106 | 2661 ft | 167 kts | 52° |
| 2026-04-30 21:39 | 51.79750 | 0.10392 | 2461 ft | 167 kts | 50° |
| 2026-04-30 21:40 | 51.80582 | 0.11631 | 2246 ft | 157 kts | 48° |
| 2026-04-30 21:40 | 51.81339 | 0.12758 | 2058 ft | 143 kts | 48° |
| 2026-04-30 21:40 | 51.82051 | 0.13823 | 1861 ft | 137 kts | 47° |
| 2026-04-30 21:40 | 51.82747 | 0.14866 | 1684 ft | 136 kts | 46° |
| 2026-04-30 21:41 | 51.83437 | 0.15900 | 1498 ft | 136 kts | 45° |
| 2026-04-30 21:41 | 51.84132 | 0.16940 | 1324 ft | 136 kts | 44° |
| 2026-04-30 21:41 | 51.84823 | 0.17975 | 1126 ft | 135 kts | 44° |
| 2026-04-30 21:41 | 51.85516 | 0.18973 | 885 ft | 135 kts | 42° |
| 2026-04-30 21:42 | 51.86194 | 0.20012 | 698 ft | 134 kts | 46° |
| 2026-04-30 21:42 | 51.86877 | 0.21039 | 545 ft | 135 kts | 43° |
| 2026-04-30 21:42 | 51.87567 | 0.22062 | 389 ft | 135 kts | 44° |
| 2026-04-30 21:42 | 51.88218 | 0.23036 | 336 ft | 107 kts | 43° |
| 2026-04-30 21:43 | 51.88582 | 0.23601 | 337 ft | 42 kts | 43° |
| 2026-04-30 21:43 | 51.88786 | 0.23916 | 339 ft | 37 kts | 52° |
| 2026-04-30 21:43 | 51.88877 | 0.24222 | 347 ft | 18 kts | 73° |
| 2026-04-30 21:43 | 51.88915 | 0.24427 | 349 ft | 19 kts | 75° |
| 2026-04-30 21:44 | 51.88938 | 0.24624 | 351 ft | 20 kts | 44° |
| 2026-04-30 21:44 | 51.89047 | 0.24785 | 345 ft | 21 kts | 43° |
| 2026-04-30 21:44 | 51.89154 | 0.24945 | 348 ft | 21 kts | 43° |
| 2026-04-30 21:44 | 51.89241 | 0.25111 | 350 ft | 18 kts | 60° |
| 2026-04-30 21:45 | 51.89326 | 0.25274 | 346 ft | 20 kts | 41° |
| 2026-04-30 21:45 | 51.89416 | 0.25450 | 349 ft | 21 kts | 90° |
| 2026-04-30 21:45 | 51.89353 | 0.25641 | 349 ft | 18 kts | 130° |
| 2026-04-30 21:45 | 51.89313 | 0.25720 | 355 ft | 4 kts | 100° |
| 2026-04-30 21:46 | 51.89326 | 0.25758 | 351 ft | 4 kts | 45° |
| 2026-04-30 21:46 | 51.89334 | 0.25771 | 355 ft | 1 kts | 41° |
| 2026-04-30 21:46 | 51.89341 | 0.25781 | 355 ft | 1 kts | 41° |
| 2026-04-30 21:46 | 51.89342 | 0.25781 | 355 ft | 0 kts | 41° |